PWSweather.com
Personal Weather Stations
Station Observations
GRD01
Warsaw, LesznoPL 05-084

WarsawLesznoPL 05-084

Lat: 52.257404, Lon: 20.564847

Elevation: 298

Station Type: WH3080

http://pogoda.kampinos.waw.pl

High Low Average
Temperature 60.1°F15.6°C 45.0°F7.2°C 49.7°F9.8°C
Dew Point 48.0°F8.9°C 37.7°F3.2°C 42.4°F5.8°C
Winds 23.5 mph 37.8 kmh 0.7 mph 1.1 kmh 8.0 mph WNW12.9 kmh WNW
Wind Gusts 39.6 mph63.7 kmh 2.2 mph3.5 kmh 16.0 mph25.7 kmh
Humidity 90% 50% 77%
Pressure 30.54 in1034.2 mb 30.19 in1022.4 mb -
Precipitation 0.18 in4.6 mm - -
Hour Temp Dew Point Humidity Winds Wind Gusts Pressure Precip Precip Rate Daily Precip Total
12:00 AM 46.8°F8.2°C 40.3°F4.6°C 78% 12.1 mph W19.5 kmh W 20.6 mph33.2 kmh 30.19 in1022.4 mb 0.00 in0.0 mm 0.00 in0.0 mm 0.00 in0.0 mm
12:11 AM 46.6°F8.1°C 40.1°F4.5°C 78% 14.5 mph W23.3 kmh W 19.0 mph30.6 kmh 29.76 in1007.8 mb 0.00 in0.0 mm 0.00 in0.0 mm 0.00 in0.0 mm
12:15 AM 46.4°F8.0°C 39.6°F4.2°C 77% 10.7 mph WNW17.2 kmh WNW 15.9 mph25.6 kmh 30.20 in1022.7 mb 0.00 in0.0 mm 0.00 in0.0 mm 0.00 in0.0 mm
12:30 AM 46.2°F7.9°C 39.1°F3.9°C 76% 6.0 mph W9.7 kmh W 17.4 mph28.0 kmh 30.20 in1022.7 mb 0.00 in0.0 mm 0.00 in0.0 mm 0.00 in0.0 mm
12:41 AM 46.2°F7.9°C 38.7°F3.7°C 75% 8.3 mph W13.4 kmh W 13.0 mph20.9 kmh 29.76 in1007.8 mb 0.00 in0.0 mm 0.00 in0.0 mm 0.00 in0.0 mm
12:45 AM 46.0°F7.8°C 38.6°F3.7°C 75% 8.3 mph W13.4 kmh W 17.4 mph28.0 kmh 30.20 in1022.7 mb 0.00 in0.0 mm 0.00 in0.0 mm 0.00 in0.0 mm
01:00 AM 45.9°F7.7°C 38.4°F3.6°C 75% 8.3 mph NW13.4 kmh NW 13.0 mph20.9 kmh 30.20 in1022.7 mb 0.00 in0.0 mm 0.00 in0.0 mm 0.00 in0.0 mm
01:11 AM 46.0°F7.8°C 38.2°F3.4°C 74% 6.0 mph WSW9.7 kmh WSW 9.2 mph14.8 kmh 29.76 in1007.8 mb 0.00 in0.0 mm 0.00 in0.0 mm 0.00 in0.0 mm
01:15 AM 46.0°F7.8°C 38.2°F3.4°C 74% 6.0 mph WSW9.7 kmh WSW 18.3 mph29.5 kmh 30.20 in1022.7 mb 0.00 in0.0 mm 0.00 in0.0 mm 0.00 in0.0 mm
01:30 AM 45.7°F7.6°C 37.9°F3.3°C 74% 7.6 mph WSW12.2 kmh WSW 20.6 mph33.2 kmh 30.20 in1022.7 mb 0.00 in0.0 mm 0.00 in0.0 mm 0.00 in0.0 mm
01:41 AM 45.7°F7.6°C 37.9°F3.3°C 74% 9.2 mph W14.8 kmh W 13.6 mph21.9 kmh 29.75 in1007.5 mb 0.00 in0.0 mm 0.00 in0.0 mm 0.00 in0.0 mm
01:45 AM 45.5°F7.5°C 37.7°F3.2°C 74% 6.9 mph WSW11.1 kmh WSW 18.3 mph29.5 kmh 30.20 in1022.7 mb 0.00 in0.0 mm 0.00 in0.0 mm 0.00 in0.0 mm
02:00 AM 45.3°F7.4°C 39.5°F4.2°C 80% 6.9 mph W11.1 kmh W 21.3 mph34.3 kmh 30.20 in1022.7 mb 0.00 in0.0 mm 0.00 in0.0 mm 0.00 in0.0 mm
02:11 AM 45.3°F7.4°C 39.5°F4.2°C 80% 11.4 mph W18.3 kmh W 13.0 mph20.9 kmh 29.76 in1007.8 mb 0.00 in0.0 mm 0.00 in0.0 mm 0.00 in0.0 mm
02:15 AM 45.1°F7.3°C 39.7°F4.3°C 81% 8.3 mph W13.4 kmh W 15.2 mph24.5 kmh 30.20 in1022.7 mb 0.00 in0.0 mm 0.00 in0.0 mm 0.00 in0.0 mm
02:30 AM 45.0°F7.2°C 39.5°F4.2°C 81% 6.0 mph WSW9.7 kmh WSW 16.8 mph27.0 kmh 30.21 in1023.0 mb 0.00 in0.0 mm 0.00 in0.0 mm 0.00 in0.0 mm
02:41 AM 45.0°F7.2°C 39.5°F4.2°C 81% 4.5 mph W7.2 kmh W 6.0 mph9.7 kmh 29.77 in1008.1 mb 0.00 in0.0 mm 0.00 in0.0 mm 0.00 in0.0 mm
02:45 AM 45.1°F7.3°C 40.0°F4.4°C 82% 8.3 mph SW13.4 kmh SW 18.3 mph29.5 kmh 30.21 in1023.0 mb 0.00 in0.0 mm 0.00 in0.0 mm 0.00 in0.0 mm
03:00 AM 45.5°F7.5°C 38.7°F3.7°C 77% 6.9 mph W11.1 kmh W 17.4 mph28.0 kmh 30.21 in1023.0 mb 0.00 in0.0 mm 0.00 in0.0 mm 0.00 in0.0 mm
03:11 AM 45.7°F7.6°C 38.9°F3.8°C 77% 8.3 mph W13.4 kmh W 13.0 mph20.9 kmh 29.76 in1007.8 mb 0.00 in0.0 mm 0.00 in0.0 mm 0.00 in0.0 mm
03:15 AM 46.0°F7.8°C 39.2°F4.0°C 77% 9.2 mph WNW14.8 kmh WNW 28.2 mph45.4 kmh 30.21 in1023.0 mb 0.00 in0.0 mm 0.00 in0.0 mm 0.00 in0.0 mm
03:30 AM 46.6°F8.1°C 39.4°F4.1°C 76% 14.5 mph WSW23.3 kmh WSW 24.4 mph39.3 kmh 30.21 in1023.0 mb 0.00 in0.0 mm 0.00 in0.0 mm 0.00 in0.0 mm
03:41 AM 46.6°F8.1°C 39.4°F4.1°C 76% 13.0 mph W20.9 kmh W 18.3 mph29.5 kmh 29.75 in1007.5 mb 0.00 in0.0 mm 0.00 in0.0 mm 0.00 in0.0 mm
03:45 AM 46.8°F8.2°C 39.6°F4.2°C 76% 10.7 mph WNW17.2 kmh WNW 21.3 mph34.3 kmh 30.20 in1022.7 mb 0.00 in0.0 mm 0.00 in0.0 mm 0.00 in0.0 mm
04:00 AM 47.1°F8.4°C 39.9°F4.4°C 76% 9.2 mph W14.8 kmh W 19.7 mph31.7 kmh 30.20 in1022.7 mb 0.00 in0.0 mm 0.00 in0.0 mm 0.00 in0.0 mm
04:11 AM 47.1°F8.4°C 39.9°F4.4°C 76% 8.3 mph W13.4 kmh W 15.9 mph25.6 kmh 29.77 in1008.1 mb 0.00 in0.0 mm 0.00 in0.0 mm 0.00 in0.0 mm
04:15 AM 47.3°F8.5°C 40.1°F4.5°C 76% 9.8 mph WNW15.8 kmh WNW 24.4 mph39.3 kmh 30.21 in1023.0 mb 0.00 in0.0 mm 0.00 in0.0 mm 0.00 in0.0 mm
04:30 AM 46.6°F8.1°C 40.4°F4.7°C 79% 8.3 mph WNW13.4 kmh WNW 21.3 mph34.3 kmh 30.22 in1023.4 mb 0.01 in0.3 mm 0.04 in1.0 mm 0.01 in0.3 mm
04:41 AM 46.6°F8.1°C 40.4°F4.7°C 79% 8.3 mph W13.4 kmh W 10.7 mph17.2 kmh 29.78 in1008.5 mb 0.01 in0.3 mm 0.00 in0.0 mm 0.01 in0.3 mm
04:45 AM 46.6°F8.1°C 41.1°F5.1°C 81% 10.7 mph WNW17.2 kmh WNW 16.8 mph27.0 kmh 30.23 in1023.7 mb 0.01 in0.3 mm 0.00 in0.0 mm 0.01 in0.3 mm
05:00 AM 46.4°F8.0°C 41.2°F5.1°C 82% 13.6 mph NW21.9 kmh NW 23.5 mph37.8 kmh 30.24 in1024.0 mb 0.01 in0.3 mm 0.00 in0.0 mm 0.01 in0.3 mm
05:11 AM 46.4°F8.0°C 41.2°F5.1°C 82% 15.9 mph NW25.6 kmh NW 19.7 mph31.7 kmh 29.80 in1009.1 mb 0.01 in0.3 mm 0.00 in0.0 mm 0.01 in0.3 mm
05:15 AM 46.6°F8.1°C 42.0°F5.6°C 84% 9.8 mph WNW15.8 kmh WNW 21.3 mph34.3 kmh 30.25 in1024.4 mb 0.02 in0.5 mm 0.15 in3.8 mm 0.02 in0.5 mm
05:30 AM 46.6°F8.1°C 42.3°F5.7°C 85% 9.2 mph NW14.8 kmh NW 13.0 mph20.9 kmh 30.26 in1024.7 mb 0.01 in0.3 mm 0.00 in0.0 mm 0.02 in0.5 mm
05:41 AM 46.6°F8.1°C 42.3°F5.7°C 85% 6.9 mph NW11.1 kmh NW 9.2 mph14.8 kmh 29.81 in1009.5 mb 0.01 in0.3 mm 0.00 in0.0 mm 0.02 in0.5 mm
05:45 AM 46.6°F8.1°C 42.6°F5.9°C 86% 9.2 mph W14.8 kmh W 17.4 mph28.0 kmh 30.26 in1024.7 mb 0.01 in0.3 mm 0.00 in0.0 mm 0.02 in0.5 mm
06:00 AM 46.8°F8.2°C 43.1°F6.2°C 87% 5.4 mph WNW8.7 kmh WNW 15.2 mph24.5 kmh 30.28 in1025.4 mb 0.02 in0.5 mm 0.01 in0.3 mm 0.04 in1.0 mm
06:11 AM 46.8°F8.2°C 43.1°F6.2°C 87% 9.8 mph N15.8 kmh N 13.0 mph20.9 kmh 29.83 in1010.2 mb 0.02 in0.5 mm 0.00 in0.0 mm 0.04 in1.0 mm
06:15 AM 46.9°F8.3°C 43.6°F6.4°C 88% 7.6 mph W12.2 kmh W 15.2 mph24.5 kmh 30.29 in1025.7 mb 0.01 in0.3 mm 0.00 in0.0 mm 0.04 in1.0 mm
06:30 AM 47.1°F8.4°C 43.7°F6.5°C 88% 6.9 mph WNW11.1 kmh WNW 15.9 mph25.6 kmh 30.29 in1025.7 mb 0.02 in0.5 mm 0.04 in1.0 mm 0.05 in1.3 mm
06:41 AM 47.1°F8.4°C 44.0°F6.7°C 89% 10.7 mph W17.2 kmh W 13.6 mph21.9 kmh 29.86 in1011.2 mb 0.02 in0.5 mm 0.00 in0.0 mm 0.05 in1.3 mm
06:45 AM 47.1°F8.4°C 44.0°F6.7°C 89% 7.6 mph W12.2 kmh W 13.6 mph21.9 kmh 30.30 in1026.1 mb 0.02 in0.5 mm 0.00 in0.0 mm 0.05 in1.3 mm
07:00 AM 47.3°F8.5°C 44.5°F6.9°C 90% 11.4 mph W18.3 kmh W 18.3 mph29.5 kmh 30.31 in1026.4 mb 0.01 in0.3 mm 0.00 in0.0 mm 0.05 in1.3 mm
07:11 AM 47.3°F8.5°C 44.5°F6.9°C 90% 11.4 mph W18.3 kmh W 15.2 mph24.5 kmh 29.87 in1011.5 mb 0.01 in0.3 mm 0.00 in0.0 mm 0.05 in1.3 mm
07:15 AM 47.5°F8.6°C 44.7°F7.1°C 90% 7.6 mph W12.2 kmh W 15.2 mph24.5 kmh 30.32 in1026.8 mb 0.02 in0.5 mm 0.15 in3.8 mm 0.06 in1.5 mm
07:30 AM 47.7°F8.7°C 44.9°F7.2°C 90% 10.7 mph WNW17.2 kmh WNW 16.8 mph27.0 kmh 30.32 in1026.8 mb 0.01 in0.3 mm 0.00 in0.0 mm 0.06 in1.5 mm
07:41 AM 47.7°F8.7°C 44.9°F7.2°C 90% 9.8 mph W15.8 kmh W 13.0 mph20.9 kmh 29.89 in1012.2 mb 0.01 in0.3 mm 0.00 in0.0 mm 0.06 in1.5 mm
07:45 AM 48.0°F8.9°C 45.2°F7.3°C 90% 13.6 mph WNW21.9 kmh WNW 19.0 mph30.6 kmh 30.34 in1027.4 mb 0.01 in0.3 mm 0.00 in0.0 mm 0.06 in1.5 mm
08:00 AM 48.7°F9.3°C 45.9°F7.7°C 90% 10.7 mph NW17.2 kmh NW 23.5 mph37.8 kmh 30.34 in1027.4 mb 0.01 in0.3 mm 0.00 in0.0 mm 0.06 in1.5 mm
08:11 AM 48.9°F9.4°C 46.1°F7.8°C 90% 9.2 mph NW14.8 kmh NW 13.0 mph20.9 kmh 29.90 in1012.5 mb 0.01 in0.3 mm 0.00 in0.0 mm 0.06 in1.5 mm
08:15 AM 50.0°F10.0°C 46.6°F8.1°C 88% 14.5 mph NW23.3 kmh NW 23.5 mph37.8 kmh 30.35 in1027.8 mb 0.00 in0.0 mm 0.00 in0.0 mm 0.06 in1.5 mm
08:30 AM 50.5°F10.3°C 45.6°F7.6°C 83% 7.6 mph NW12.2 kmh NW 18.3 mph29.5 kmh 30.37 in1028.4 mb 0.00 in0.0 mm 0.00 in0.0 mm 0.06 in1.5 mm
08:41 AM 50.7°F10.4°C 45.4°F7.4°C 82% 9.8 mph W15.8 kmh W 13.6 mph21.9 kmh 29.92 in1013.2 mb 0.00 in0.0 mm 0.00 in0.0 mm 0.06 in1.5 mm
08:45 AM 51.6°F10.9°C 45.3°F7.4°C 79% 13.6 mph WNW21.9 kmh WNW 20.6 mph33.2 kmh 30.37 in1028.4 mb 0.00 in0.0 mm 0.00 in0.0 mm 0.06 in1.5 mm
09:00 AM 52.9°F11.6°C 45.2°F7.3°C 75% 10.7 mph NW17.2 kmh NW 25.1 mph40.4 kmh 30.38 in1028.8 mb 0.00 in0.0 mm 0.00 in0.0 mm 0.06 in1.5 mm
09:11 AM 52.9°F11.6°C 44.8°F7.1°C 74% 15.2 mph NW24.5 kmh NW 21.3 mph34.3 kmh 29.94 in1013.9 mb 0.00 in0.0 mm 0.00 in0.0 mm 0.06 in1.5 mm
09:15 AM 54.0°F12.2°C 45.1°F7.3°C 72% 11.4 mph WNW18.3 kmh WNW 19.7 mph31.7 kmh 30.39 in1029.1 mb 0.00 in0.0 mm 0.00 in0.0 mm 0.06 in1.5 mm
09:30 AM 54.3°F12.4°C 44.7°F7.1°C 70% 11.4 mph NW18.3 kmh NW 25.9 mph41.7 kmh 30.39 in1029.1 mb 0.00 in0.0 mm 0.00 in0.0 mm 0.06 in1.5 mm
09:41 AM 54.7°F12.6°C 43.5°F6.4°C 66% 10.7 mph NW17.2 kmh NW 16.8 mph27.0 kmh 29.95 in1014.2 mb 0.00 in0.0 mm 0.00 in0.0 mm 0.06 in1.5 mm
09:45 AM 55.4°F13.0°C 43.4°F6.3°C 64% 22.8 mph NW36.7 kmh NW 28.9 mph46.5 kmh 30.39 in1029.1 mb 0.00 in0.0 mm 0.00 in0.0 mm 0.06 in1.5 mm
10:00 AM 55.4°F13.0°C 43.0°F6.1°C 63% 13.0 mph NW20.9 kmh NW 27.3 mph43.9 kmh 30.40 in1029.5 mb 0.00 in0.0 mm 0.00 in0.0 mm 0.06 in1.5 mm
10:11 AM 55.4°F13.0°C 43.0°F6.1°C 63% 15.2 mph N24.5 kmh N 19.7 mph31.7 kmh 29.96 in1014.6 mb 0.00 in0.0 mm 0.00 in0.0 mm 0.06 in1.5 mm
10:15 AM 55.6°F13.1°C 42.8°F6.0°C 62% 15.2 mph NW24.5 kmh NW 20.6 mph33.2 kmh 30.40 in1029.5 mb 0.00 in0.0 mm 0.00 in0.0 mm 0.06 in1.5 mm
10:30 AM 56.1°F13.4°C 42.8°F6.0°C 61% 9.2 mph NW14.8 kmh NW 23.5 mph37.8 kmh 30.41 in1029.8 mb 0.00 in0.0 mm 0.00 in0.0 mm 0.06 in1.5 mm
10:41 AM 56.1°F13.4°C 42.8°F6.0°C 61% 17.4 mph NW28.0 kmh NW 22.1 mph35.6 kmh 29.96 in1014.6 mb 0.00 in0.0 mm 0.00 in0.0 mm 0.06 in1.5 mm
10:45 AM 56.8°F13.8°C 43.5°F6.4°C 61% 6.9 mph WNW11.1 kmh WNW 23.5 mph37.8 kmh 30.41 in1029.8 mb 0.00 in0.0 mm 0.00 in0.0 mm 0.06 in1.5 mm
11:00 AM 57.2°F14.0°C 43.0°F6.1°C 59% 16.8 mph NW27.0 kmh NW 23.5 mph37.8 kmh 30.41 in1029.8 mb 0.00 in0.0 mm 0.00 in0.0 mm 0.06 in1.5 mm
11:11 AM 57.2°F14.0°C 42.5°F5.8°C 58% 13.6 mph NW21.9 kmh NW 15.2 mph24.5 kmh 29.97 in1014.9 mb 0.00 in0.0 mm 0.00 in0.0 mm 0.06 in1.5 mm
11:15 AM 57.6°F14.2°C 42.9°F6.1°C 58% 7.6 mph WNW12.2 kmh WNW 20.6 mph33.2 kmh 30.42 in1030.1 mb 0.00 in0.0 mm 0.00 in0.0 mm 0.06 in1.5 mm
11:30 AM 57.6°F14.2°C 42.9°F6.1°C 58% 6.0 mph NW9.7 kmh NW 14.5 mph23.3 kmh 30.43 in1030.5 mb 0.00 in0.0 mm 0.00 in0.0 mm 0.06 in1.5 mm
11:41 AM 57.7°F14.3°C 42.6°F5.9°C 57% 9.2 mph NW14.8 kmh NW 15.9 mph25.6 kmh 29.98 in1015.2 mb 0.00 in0.0 mm 0.00 in0.0 mm 0.06 in1.5 mm
11:45 AM 57.7°F14.3°C 42.1°F5.6°C 56% 9.8 mph WNW15.8 kmh WNW 14.5 mph23.3 kmh 30.43 in1030.5 mb 0.00 in0.0 mm 0.00 in0.0 mm 0.06 in1.5 mm
12:00 PM 58.3°F14.6°C 41.2°F5.1°C 53% 10.7 mph NW17.2 kmh NW 21.3 mph34.3 kmh 30.43 in1030.5 mb 0.00 in0.0 mm 0.00 in0.0 mm 0.06 in1.5 mm
12:11 PM 58.5°F14.7°C 41.4°F5.2°C 53% 8.3 mph NW13.4 kmh NW 12.1 mph19.5 kmh 29.99 in1015.6 mb 0.00 in0.0 mm 0.00 in0.0 mm 0.06 in1.5 mm
12:15 PM 58.6°F14.8°C 40.6°F4.8°C 51% 7.6 mph NW12.2 kmh NW 20.6 mph33.2 kmh 30.43 in1030.5 mb 0.00 in0.0 mm 0.00 in0.0 mm 0.06 in1.5 mm
12:30 PM 58.6°F14.8°C 41.5°F5.3°C 53% 6.9 mph WNW11.1 kmh WNW 24.4 mph39.3 kmh 30.44 in1030.8 mb 0.00 in0.0 mm 0.00 in0.0 mm 0.06 in1.5 mm
12:41 PM 58.6°F14.8°C 42.0°F5.6°C 54% 8.3 mph N13.4 kmh N 13.0 mph20.9 kmh 30.00 in1015.9 mb 0.00 in0.0 mm 0.00 in0.0 mm 0.06 in1.5 mm
12:45 PM 58.3°F14.6°C 41.7°F5.4°C 54% 12.1 mph W19.5 kmh W 19.0 mph30.6 kmh 30.43 in1030.5 mb 0.00 in0.0 mm 0.00 in0.0 mm 0.06 in1.5 mm
01:00 PM 59.0°F15.0°C 41.9°F5.5°C 53% 15.2 mph WNW24.5 kmh WNW 23.5 mph37.8 kmh 30.43 in1030.5 mb 0.00 in0.0 mm 0.00 in0.0 mm 0.06 in1.5 mm
01:11 PM 59.0°F15.0°C 41.9°F5.5°C 53% 15.2 mph NW24.5 kmh NW 19.7 mph31.7 kmh 29.99 in1015.6 mb 0.00 in0.0 mm 0.00 in0.0 mm 0.06 in1.5 mm
01:15 PM 60.1°F15.6°C 41.4°F5.2°C 50% 11.4 mph WNW18.3 kmh WNW 22.1 mph35.6 kmh 30.44 in1030.8 mb 0.00 in0.0 mm 0.00 in0.0 mm 0.06 in1.5 mm
01:30 PM 58.6°F14.8°C 40.6°F4.8°C 51% 10.7 mph WNW17.2 kmh WNW 19.0 mph30.6 kmh 30.44 in1030.8 mb 0.00 in0.0 mm 0.00 in0.0 mm 0.06 in1.5 mm
01:41 PM 58.3°F14.6°C 41.2°F5.1°C 53% 14.5 mph NW23.3 kmh NW 18.3 mph29.5 kmh 30.00 in1015.9 mb 0.00 in0.0 mm 0.00 in0.0 mm 0.06 in1.5 mm
01:45 PM 54.7°F12.6°C 41.5°F5.3°C 61% 8.3 mph NW13.4 kmh NW 25.9 mph41.7 kmh 30.45 in1031.2 mb 0.01 in0.3 mm 0.15 in3.8 mm 0.07 in1.8 mm
02:00 PM 54.3°F12.4°C 44.0°F6.7°C 68% 6.9 mph WNW11.1 kmh WNW 17.4 mph28.0 kmh 30.45 in1031.2 mb 0.01 in0.3 mm 0.00 in0.0 mm 0.07 in1.8 mm
02:11 PM 54.7°F12.6°C 42.7°F5.9°C 64% 4.5 mph NW7.2 kmh NW 6.9 mph11.1 kmh 30.02 in1016.6 mb 0.01 in0.3 mm 0.00 in0.0 mm 0.07 in1.8 mm
02:15 PM 53.1°F11.7°C 43.9°F6.6°C 71% 8.3 mph NNW13.4 kmh NNW 22.1 mph35.6 kmh 30.47 in1031.8 mb 0.05 in1.3 mm 0.60 in15.2 mm 0.11 in2.8 mm
02:30 PM 50.2°F10.1°C 42.9°F6.1°C 76% 9.2 mph NW14.8 kmh NW 15.9 mph25.6 kmh 30.48 in1032.2 mb 0.09 in2.3 mm 0.16 in4.1 mm 0.15 in3.8 mm
02:41 PM 50.0°F10.0°C 43.1°F6.2°C 77% 9.2 mph NW14.8 kmh NW 10.7 mph17.2 kmh 30.03 in1016.9 mb 0.09 in2.3 mm 0.00 in0.0 mm 0.15 in3.8 mm
02:45 PM 49.6°F9.8°C 43.7°F6.5°C 80% 3.8 mph NW6.1 kmh NW 9.8 mph15.8 kmh 30.47 in1031.8 mb 0.08 in2.0 mm 0.00 in0.0 mm 0.15 in3.8 mm
03:00 PM 50.5°F10.3°C 45.2°F7.3°C 82% 6.0 mph NNW9.7 kmh NNW 11.4 mph18.3 kmh 30.47 in1031.8 mb 0.08 in2.0 mm 0.00 in0.0 mm 0.15 in3.8 mm
03:11 PM 50.7°F10.4°C 45.4°F7.4°C 82% 8.3 mph NW13.4 kmh NW 10.7 mph17.2 kmh 30.03 in1016.9 mb 0.08 in2.0 mm 0.00 in0.0 mm 0.15 in3.8 mm
03:15 PM 51.8°F11.0°C 47.1°F8.4°C 84% 3.8 mph WNW6.1 kmh WNW 6.9 mph11.1 kmh 30.47 in1031.8 mb 0.05 in1.3 mm 0.00 in0.0 mm 0.15 in3.8 mm
03:30 PM 53.1°F11.7°C 48.0°F8.9°C 83% 2.2 mph SW3.5 kmh SW 9.8 mph15.8 kmh 30.47 in1031.8 mb 0.00 in0.0 mm 0.00 in0.0 mm 0.15 in3.8 mm
03:41 PM 53.2°F11.8°C 48.2°F9.0°C 83% 4.5 mph SW7.2 kmh SW 5.4 mph8.7 kmh 30.03 in1016.9 mb 0.00 in0.0 mm 0.00 in0.0 mm 0.15 in3.8 mm
03:45 PM 53.1°F11.7°C 47.4°F8.6°C 81% 3.8 mph SSW6.1 kmh SSW 7.6 mph12.2 kmh 30.47 in1031.8 mb 0.00 in0.0 mm 0.00 in0.0 mm 0.15 in3.8 mm
04:00 PM 52.3°F11.3°C 45.7°F7.6°C 78% 23.5 mph NW37.8 kmh NW 39.6 mph63.7 kmh 30.47 in1031.8 mb 0.00 in0.0 mm 0.00 in0.0 mm 0.15 in3.8 mm
04:11 PM 51.8°F11.0°C 44.8°F7.1°C 77% 15.9 mph NW25.6 kmh NW 21.3 mph34.3 kmh 30.04 in1017.3 mb 0.00 in0.0 mm 0.00 in0.0 mm 0.15 in3.8 mm
04:15 PM 50.2°F10.1°C 43.9°F6.6°C 79% 13.0 mph NW20.9 kmh NW 22.1 mph35.6 kmh 30.48 in1032.2 mb 0.00 in0.0 mm 0.00 in0.0 mm 0.15 in3.8 mm
04:30 PM 49.6°F9.8°C 44.0°F6.7°C 81% 10.7 mph NNW17.2 kmh NNW 13.0 mph20.9 kmh 30.49 in1032.5 mb 0.00 in0.0 mm 0.00 in0.0 mm 0.15 in3.8 mm
04:41 PM 49.6°F9.8°C 44.0°F6.7°C 81% 7.6 mph NW12.2 kmh NW 9.2 mph14.8 kmh 30.05 in1017.6 mb 0.00 in0.0 mm 0.00 in0.0 mm 0.15 in3.8 mm
04:45 PM 49.8°F9.9°C 44.2°F6.8°C 81% 4.5 mph NW7.2 kmh NW 10.7 mph17.2 kmh 30.49 in1032.5 mb 0.00 in0.0 mm 0.00 in0.0 mm 0.15 in3.8 mm
05:00 PM 49.6°F9.8°C 44.4°F6.9°C 82% 6.0 mph NW9.7 kmh NW 13.6 mph21.9 kmh 30.48 in1032.2 mb 0.00 in0.0 mm 0.00 in0.0 mm 0.15 in3.8 mm
05:11 PM 49.6°F9.8°C 44.4°F6.9°C 82% 7.6 mph NW12.2 kmh NW 9.8 mph15.8 kmh 30.04 in1017.3 mb 0.00 in0.0 mm 0.00 in0.0 mm 0.15 in3.8 mm
05:15 PM 49.6°F9.8°C 44.4°F6.9°C 82% 3.1 mph NNW5.0 kmh NNW 8.3 mph13.4 kmh 30.48 in1032.2 mb 0.00 in0.0 mm 0.00 in0.0 mm 0.15 in3.8 mm
05:30 PM 49.5°F9.7°C 44.2°F6.8°C 82% 7.6 mph NW12.2 kmh NW 9.8 mph15.8 kmh 30.51 in1033.2 mb 0.00 in0.0 mm 0.00 in0.0 mm 0.15 in3.8 mm
05:41 PM 49.3°F9.6°C 44.0°F6.7°C 82% 6.0 mph W9.7 kmh W 7.6 mph12.2 kmh 30.06 in1017.9 mb 0.01 in0.3 mm 0.05 in1.3 mm 0.17 in4.3 mm
05:45 PM 49.1°F9.5°C 44.2°F6.8°C 83% 3.1 mph WSW5.0 kmh WSW 12.1 mph19.5 kmh 30.49 in1032.5 mb 0.02 in0.5 mm 0.15 in3.8 mm 0.18 in4.6 mm
06:00 PM 48.4°F9.1°C 43.5°F6.4°C 83% 3.1 mph W5.0 kmh W 4.5 mph7.2 kmh 30.49 in1032.5 mb 0.02 in0.5 mm 0.00 in0.0 mm 0.18 in4.6 mm
06:11 PM 48.4°F9.1°C 43.5°F6.4°C 83% 3.8 mph NW6.1 kmh NW 4.5 mph7.2 kmh 30.04 in1017.3 mb 0.02 in0.5 mm 0.00 in0.0 mm 0.18 in4.6 mm
06:15 PM 48.2°F9.0°C 43.3°F6.3°C 83% 3.1 mph NW5.0 kmh NW 5.4 mph8.7 kmh 30.48 in1032.2 mb 0.02 in0.5 mm 0.00 in0.0 mm 0.18 in4.6 mm
06:30 PM 47.7°F8.7°C 42.8°F6.0°C 83% 0.7 mph W1.1 kmh W 3.8 mph6.1 kmh 30.49 in1032.5 mb 0.01 in0.3 mm 0.00 in0.0 mm 0.18 in4.6 mm
06:41 PM 47.7°F8.7°C 42.8°F6.0°C 83% 0.7 mph NW1.1 kmh NW 2.2 mph3.5 kmh 30.05 in1017.6 mb 0.01 in0.3 mm 0.00 in0.0 mm 0.18 in4.6 mm
06:45 PM 47.3°F8.5°C 42.4°F5.8°C 83% 1.6 mph WNW2.6 kmh WNW 2.2 mph3.5 kmh 30.50 in1032.8 mb 0.00 in0.0 mm 0.00 in0.0 mm 0.18 in4.6 mm
07:00 PM 47.3°F8.5°C 42.7°F5.9°C 84% 0.7 mph SW1.1 kmh SW 3.1 mph5.0 kmh 30.50 in1032.8 mb 0.00 in0.0 mm 0.00 in0.0 mm 0.18 in4.6 mm
07:11 PM 47.3°F8.5°C 42.7°F5.9°C 84% 0.7 mph SW1.1 kmh SW 1.6 mph2.6 kmh 30.06 in1017.9 mb 0.00 in0.0 mm 0.00 in0.0 mm 0.18 in4.6 mm
07:15 PM 47.3°F8.5°C 42.7°F5.9°C 84% 1.6 mph WNW2.6 kmh WNW 7.6 mph12.2 kmh 30.50 in1032.8 mb 0.00 in0.0 mm 0.00 in0.0 mm 0.18 in4.6 mm
07:30 PM 47.7°F8.7°C 43.1°F6.2°C 84% 5.4 mph NW8.7 kmh NW 7.6 mph12.2 kmh 30.50 in1032.8 mb 0.00 in0.0 mm 0.00 in0.0 mm 0.18 in4.6 mm
07:41 PM 47.7°F8.7°C 43.1°F6.2°C 84% 6.0 mph NW9.7 kmh NW 7.6 mph12.2 kmh 30.07 in1018.3 mb 0.00 in0.0 mm 0.00 in0.0 mm 0.18 in4.6 mm
07:45 PM 47.8°F8.8°C 42.9°F6.1°C 83% 3.1 mph W5.0 kmh W 6.0 mph9.7 kmh 30.50 in1032.8 mb 0.00 in0.0 mm 0.00 in0.0 mm 0.18 in4.6 mm
08:00 PM 47.8°F8.8°C 42.9°F6.1°C 83% 3.1 mph WNW5.0 kmh WNW 6.9 mph11.1 kmh 30.51 in1033.2 mb 0.00 in0.0 mm 0.00 in0.0 mm 0.18 in4.6 mm
08:11 PM 47.8°F8.8°C 42.6°F5.9°C 82% 4.5 mph NW7.2 kmh NW 6.0 mph9.7 kmh 30.07 in1018.3 mb 0.00 in0.0 mm 0.00 in0.0 mm 0.18 in4.6 mm
08:15 PM 47.8°F8.8°C 42.6°F5.9°C 82% 3.1 mph W5.0 kmh W 6.0 mph9.7 kmh 30.51 in1033.2 mb 0.00 in0.0 mm 0.00 in0.0 mm 0.18 in4.6 mm
08:30 PM 47.7°F8.7°C 42.1°F5.6°C 81% 1.6 mph SW2.6 kmh SW 6.9 mph11.1 kmh 30.51 in1033.2 mb 0.00 in0.0 mm 0.00 in0.0 mm 0.18 in4.6 mm
08:41 PM 47.7°F8.7°C 42.1°F5.6°C 81% 2.2 mph SW3.5 kmh SW 3.1 mph5.0 kmh 30.07 in1018.3 mb 0.00 in0.0 mm 0.00 in0.0 mm 0.18 in4.6 mm
08:45 PM 47.3°F8.5°C 41.8°F5.4°C 81% 2.2 mph WSW3.5 kmh WSW 4.5 mph7.2 kmh 30.51 in1033.2 mb 0.00 in0.0 mm 0.00 in0.0 mm 0.18 in4.6 mm
09:00 PM 46.9°F8.3°C 41.4°F5.2°C 81% 1.6 mph SW2.6 kmh SW 3.8 mph6.1 kmh 30.51 in1033.2 mb 0.00 in0.0 mm 0.00 in0.0 mm 0.18 in4.6 mm
09:11 PM 46.9°F8.3°C 41.4°F5.2°C 81% 1.6 mph SW2.6 kmh SW 2.2 mph3.5 kmh 30.08 in1018.6 mb 0.00 in0.0 mm 0.00 in0.0 mm 0.18 in4.6 mm
09:15 PM 46.8°F8.2°C 41.2°F5.1°C 81% 3.8 mph SW6.1 kmh SW 4.5 mph7.2 kmh 30.53 in1033.9 mb 0.00 in0.0 mm 0.00 in0.0 mm 0.18 in4.6 mm
09:30 PM 46.6°F8.1°C 41.4°F5.2°C 82% 4.5 mph W7.2 kmh W 6.0 mph9.7 kmh 30.52 in1033.5 mb 0.00 in0.0 mm 0.00 in0.0 mm 0.18 in4.6 mm
09:41 PM 46.6°F8.1°C 41.4°F5.2°C 82% 2.2 mph W3.5 kmh W 3.1 mph5.0 kmh 30.09 in1019.0 mb 0.00 in0.0 mm 0.00 in0.0 mm 0.18 in4.6 mm
09:45 PM 46.2°F7.9°C 41.0°F5.0°C 82% 2.2 mph WSW3.5 kmh WSW 5.4 mph8.7 kmh 30.52 in1033.5 mb 0.00 in0.0 mm 0.00 in0.0 mm 0.18 in4.6 mm
10:00 PM 46.2°F7.9°C 41.0°F5.0°C 82% 3.8 mph WSW6.1 kmh WSW 7.6 mph12.2 kmh 30.53 in1033.9 mb 0.00 in0.0 mm 0.00 in0.0 mm 0.18 in4.6 mm
10:11 PM 46.2°F7.9°C 41.3°F5.2°C 83% 3.1 mph NW5.0 kmh NW 4.5 mph7.2 kmh 30.08 in1018.6 mb 0.00 in0.0 mm 0.00 in0.0 mm 0.18 in4.6 mm
10:15 PM 46.4°F8.0°C 41.5°F5.3°C 83% 5.4 mph W8.7 kmh W 9.2 mph14.8 kmh 30.53 in1033.9 mb 0.00 in0.0 mm 0.00 in0.0 mm 0.18 in4.6 mm
10:30 PM 46.8°F8.2°C 42.2°F5.7°C 84% 4.5 mph W7.2 kmh W 9.8 mph15.8 kmh 30.53 in1033.9 mb 0.00 in0.0 mm 0.00 in0.0 mm 0.18 in4.6 mm
10:41 PM 46.8°F8.2°C 42.2°F5.7°C 84% 4.5 mph W7.2 kmh W 6.9 mph11.1 kmh 30.09 in1019.0 mb 0.00 in0.0 mm 0.00 in0.0 mm 0.18 in4.6 mm
10:45 PM 46.9°F8.3°C 42.4°F5.8°C 84% 4.5 mph NW7.2 kmh NW 9.2 mph14.8 kmh 30.53 in1033.9 mb 0.00 in0.0 mm 0.00 in0.0 mm 0.18 in4.6 mm
11:00 PM 46.9°F8.3°C 42.4°F5.8°C 84% 5.4 mph WNW8.7 kmh WNW 7.6 mph12.2 kmh 30.53 in1033.9 mb 0.00 in0.0 mm 0.00 in0.0 mm 0.16 in4.1 mm
11:11 PM 46.9°F8.3°C 42.4°F5.8°C 84% 6.0 mph NW9.7 kmh NW 8.3 mph13.4 kmh 30.09 in1019.0 mb 0.00 in0.0 mm 0.00 in0.0 mm 0.16 in4.1 mm
11:15 PM 46.8°F8.2°C 42.2°F5.7°C 84% 3.1 mph WNW5.0 kmh WNW 10.7 mph17.2 kmh 30.53 in1033.9 mb 0.00 in0.0 mm 0.00 in0.0 mm 0.16 in4.1 mm
11:30 PM 46.6°F8.1°C 42.0°F5.6°C 84% 3.8 mph W6.1 kmh W 6.0 mph9.7 kmh 30.53 in1033.9 mb 0.00 in0.0 mm 0.00 in0.0 mm 0.16 in4.1 mm
11:41 PM 46.4°F8.0°C 41.8°F5.4°C 84% 2.2 mph W3.5 kmh W 3.1 mph5.0 kmh 30.09 in1019.0 mb 0.00 in0.0 mm 0.00 in0.0 mm 0.16 in4.1 mm
11:45 PM 46.2°F7.9°C 41.7°F5.4°C 84% 2.2 mph W3.5 kmh W 6.0 mph9.7 kmh 30.54 in1034.2 mb 0.00 in0.0 mm 0.00 in0.0 mm 0.16 in4.1 mm